LGAV Airport Information

Runway Information
Runway 03L Length 12467 ft width 148 ft
Elevation 255 ft Threshold 984 ft Heading 37
Runway 21R Length 12467 ft Width 148 ft
Elevation 282 ft Threshold 984 ft Heading 217
Runway 03R Length 13123 ft width 148 ft
Elevation 271 ft Threshold 984 ft Heading 37
Runway 21L Length 13123 ft Width 148 ft
Elevation 303 ft Threshold 984 ft Heading 217
Airport Frequencies
Type APP Name ATHINAI AP Frequency 126.575 MHZ
Type ARR Name ATHINAI AR Frequency 132.975 MHZ
Type ATIS Name ATIS Frequency 136.125 MHZ
Type CLD Name CLNC DEL Frequency 118.675 MHZ
Type DEP Name ATHINAI DE Frequency 128.95 MHZ
Type DIR Name ATHINAI DI Frequency 121.4 MHZ
Type GND Name GND Frequency 121.75 MHZ
Type INFO Name INFO Frequency 136.025 MHZ
Type PMSV Name ATHINAI VO Frequency 127.8 MHZ
Type RDO Name RDO Frequency 563.7 MHZ
Type TWR Name TWR Frequency 136.275 MHZ
Airport Navaids
Type VOR-DME Name Eleftherios Venizelos Frequency 109600 KHZ
Type VOR-DME Name Eleftherios Venizelos Frequency 117500 KHZ
Airport Weather Information & NOTAM
ADDS - METARS form results

(2213 UTC 18 February 2019)
Data provider http://aviationweather.gov/metar/data/
 
METAR text: LGAV 182150Z 33002KT 9999 FEW030 03/01 Q1023 NOSIG
Conditions at: LGAV (ATHENS/ELEF-VEN , GR) observed 2150 UTC 18 February 2019
Temperature: 3.0°C (37°F)
Dewpoint: 1.0°C (34°F) [RH = 87%]
Pressure (altimeter): 30.21 inches Hg (1023.0 mb)
Winds: from the NNW (330 degrees) at 2 MPH (2 knots; 1.0 m/s)
Visibility: 6 or more miles (10+ km)
Ceiling: at least 12,000 feet AGL
Clouds: few clouds at 3000 feet AGL
Weather: no significant weather observed at this time

METAR text: LGAV 182120Z 32003KT 9999 FEW030 04/02 Q1023 NOSIG
Conditions at: LGAV (ATHENS/ELEF-VEN , GR) observed 2120 UTC 18 February 2019
Temperature: 4.0°C (39°F)
Dewpoint: 2.0°C (36°F) [RH = 87%]
Pressure (altimeter): 30.21 inches Hg (1023.0 mb)
Winds: from the NW (320 degrees) at 3 MPH (3 knots; 1.5 m/s)
Visibility: 6 or more miles (10+ km)
Ceiling: at least 12,000 feet AGL
Clouds: few clouds at 3000 feet AGL
Weather: no significant weather observed at this time

Forecast for: LGAV (ATHENS/ELEF-VEN , GR)
Text: TAF LGAV 181700Z 1818/1918 VRB05KT 9999 FEW025
Forecast period: 1800 UTC 18 February 2019 to 0400 UTC 19 February 2019
Forecast type: FROM: standard forecast or significant change
Winds: variable direction winds at 6 MPH (5 knots; 2.6 m/s)
Visibility: 6 or more miles 10+ km)
Ceiling: at least 12,000 feet AGL
Clouds: few clouds at 2500 feet AGL
Weather: no significant weather forecast for this period
Text: BECMG 1904/1906 01010KT
Forecast period: 0400 to 1800 UTC 19 February 2019
Forecast type: BECOMING: Conditions expected to become as follows by 0600 UTC 19 February 2019
Winds: from the N (10 degrees) at 12 MPH (10 knots; 5.1 m/s)
Visibility: 6 or more miles 10+ km)
Ceiling: at least 12,000 feet AGL
Clouds: few clouds at 2500 feet AGL
Weather: no significant weather forecast for this period